sensor_id;sensor_type;location;lat;lon;timestamp;P1;durP1;ratioP1;P2;durP2;ratioP2
48042;SDS011;33988;47.992;8.820;2022-10-23T00:02:13;5.30;;;1.50;;
48042;SDS011;33988;47.992;8.820;2022-10-23T00:04:44;3.13;;;1.70;;
48042;SDS011;33988;47.992;8.820;2022-10-23T00:07:32;6.32;;;1.50;;
48042;SDS011;33988;47.992;8.820;2022-10-23T00:13:23;3.92;;;1.65;;
48042;SDS011;33988;47.992;8.820;2022-10-23T00:16:22;4.53;;;1.75;;
48042;SDS011;33988;47.992;8.820;2022-10-23T00:18:49;3.15;;;1.60;;
48042;SDS011;33988;47.992;8.820;2022-10-23T00:21:16;3.90;;;1.77;;
48042;SDS011;33988;47.992;8.820;2022-10-23T00:23:44;1.50;;;1.40;;
48042;SDS011;33988;47.992;8.820;2022-10-23T00:26:11;6.03;;;1.50;;
48042;SDS011;33988;47.992;8.820;2022-10-23T00:28:46;7.93;;;1.40;;
48042;SDS011;33988;47.992;8.820;2022-10-23T00:33:47;3.38;;;1.60;;
48042;SDS011;33988;47.992;8.820;2022-10-23T00:36:17;2.13;;;1.92;;
48042;SDS011;33988;47.992;8.820;2022-10-23T00:41:20;7.20;;;2.05;;
48042;SDS011;33988;47.992;8.820;2022-10-23T00:46:35;4.68;;;1.67;;
48042;SDS011;33988;47.992;8.820;2022-10-23T00:49:04;7.28;;;3.20;;
48042;SDS011;33988;47.992;8.820;2022-10-23T00:51:39;4.68;;;3.15;;
48042;SDS011;33988;47.992;8.820;2022-10-23T00:54:13;3.38;;;2.78;;
48042;SDS011;33988;47.992;8.820;2022-10-23T00:56:55;6.35;;;3.58;;
48042;SDS011;33988;47.992;8.820;2022-10-23T00:59:32;7.25;;;3.10;;
48042;SDS011;33988;47.992;8.820;2022-10-23T01:02:02;7.93;;;2.25;;
48042;SDS011;33988;47.992;8.820;2022-10-23T01:04:33;6.78;;;1.90;;
48042;SDS011;33988;47.992;8.820;2022-10-23T01:07:16;1.70;;;1.60;;
48042;SDS011;33988;47.992;8.820;2022-10-23T01:12:54;4.72;;;2.15;;
48042;SDS011;33988;47.992;8.820;2022-10-23T01:15:51;2.55;;;1.40;;
48042;SDS011;33988;47.992;8.820;2022-10-23T01:18:35;1.50;;;1.40;;
48042;SDS011;33988;47.992;8.820;2022-10-23T01:35:26;3.97;;;1.50;;
48042;SDS011;33988;47.992;8.820;2022-10-23T01:41:27;2.10;;;1.90;;
48042;SDS011;33988;47.992;8.820;2022-10-23T01:46:50;2.75;;;2.45;;
48042;SDS011;33988;47.992;8.820;2022-10-23T01:49:21;2.45;;;1.98;;
48042;SDS011;33988;47.992;8.820;2022-10-23T01:51:51;3.05;;;2.00;;
48042;SDS011;33988;47.992;8.820;2022-10-23T01:54:23;5.82;;;2.08;;
48042;SDS011;33988;47.992;8.820;2022-10-23T01:56:56;1.98;;;1.58;;
48042;SDS011;33988;47.992;8.820;2022-10-23T01:59:31;1.83;;;1.50;;
48042;SDS011;33988;47.992;8.820;2022-10-23T02:02:04;1.33;;;1.23;;
48042;SDS011;33988;47.992;8.820;2022-10-23T02:04:50;4.18;;;1.50;;
48042;SDS011;33988;47.992;8.820;2022-10-23T02:07:29;8.25;;;1.55;;
48042;SDS011;33988;47.992;8.820;2022-10-23T02:09:56;1.55;;;1.38;;
48042;SDS011;33988;47.992;8.820;2022-10-23T02:12:29;1.75;;;1.40;;
48042;SDS011;33988;47.992;8.820;2022-10-23T02:15:32;1.95;;;1.40;;
48042;SDS011;33988;47.992;8.820;2022-10-23T02:18:26;3.67;;;2.17;;
48042;SDS011;33988;47.992;8.820;2022-10-23T02:21:28;2.20;;;1.38;;
48042;SDS011;33988;47.992;8.820;2022-10-23T02:24:30;1.92;;;1.42;;
48042;SDS011;33988;47.992;8.820;2022-10-23T02:27:11;1.70;;;1.20;;
48042;SDS011;33988;47.992;8.820;2022-10-23T02:30:05;1.40;;;1.30;;
48042;SDS011;33988;47.992;8.820;2022-10-23T02:32:34;2.60;;;1.50;;
48042;SDS011;33988;47.992;8.820;2022-10-23T02:37:33;1.77;;;1.45;;
48042;SDS011;33988;47.992;8.820;2022-10-23T02:40:02;5.32;;;1.33;;
48042;SDS011;33988;47.992;8.820;2022-10-23T02:45:49;2.72;;;1.25;;
48042;SDS011;33988;47.992;8.820;2022-10-23T02:49:18;3.03;;;1.35;;
48042;SDS011;33988;47.992;8.820;2022-10-23T02:52:05;1.08;;;0.98;;
48042;SDS011;33988;47.992;8.820;2022-10-23T02:57:45;3.80;;;1.25;;
48042;SDS011;33988;47.992;8.820;2022-10-23T03:00:16;2.55;;;1.50;;
48042;SDS011;33988;47.992;8.820;2022-10-23T03:05:25;2.30;;;1.55;;
48042;SDS011;33988;47.992;8.820;2022-10-23T03:07:58;6.35;;;1.35;;
48042;SDS011;33988;47.992;8.820;2022-10-23T03:10:25;5.88;;;1.40;;
48042;SDS011;33988;47.992;8.820;2022-10-23T03:12:52;4.20;;;1.10;;
48042;SDS011;33988;47.992;8.820;2022-10-23T03:15:19;4.93;;;1.30;;
48042;SDS011;33988;47.992;8.820;2022-10-23T03:17:46;3.45;;;1.20;;
48042;SDS011;33988;47.992;8.820;2022-10-23T03:20:13;6.15;;;1.30;;
48042;SDS011;33988;47.992;8.820;2022-10-23T03:22:40;4.25;;;1.10;;
48042;SDS011;33988;47.992;8.820;2022-10-23T03:25:08;13.93;;;1.60;;
48042;SDS011;33988;47.992;8.820;2022-10-23T03:27:37;12.40;;;1.20;;
48042;SDS011;33988;47.992;8.820;2022-10-23T03:30:05;1.90;;;1.20;;
48042;SDS011;33988;47.992;8.820;2022-10-23T03:32:32;5.40;;;1.10;;
48042;SDS011;33988;47.992;8.820;2022-10-23T03:35:02;2.67;;;0.98;;
48042;SDS011;33988;47.992;8.820;2022-10-23T03:37:29;7.60;;;1.00;;
48042;SDS011;33988;47.992;8.820;2022-10-23T03:39:56;6.03;;;0.98;;
48042;SDS011;33988;47.992;8.820;2022-10-23T03:42:23;0.95;;;0.90;;
48042;SDS011;33988;47.992;8.820;2022-10-23T03:44:53;3.05;;;0.90;;
48042;SDS011;33988;47.992;8.820;2022-10-23T03:47:20;0.93;;;0.80;;
48042;SDS011;33988;47.992;8.820;2022-10-23T03:49:50;1.02;;;0.93;;
48042;SDS011;33988;47.992;8.820;2022-10-23T03:52:19;1.10;;;0.93;;
48042;SDS011;33988;47.992;8.820;2022-10-23T03:54:46;1.10;;;1.00;;
48042;SDS011;33988;47.992;8.820;2022-10-23T03:57:13;1.00;;;1.00;;
48042;SDS011;33988;47.992;8.820;2022-10-23T03:59:40;1.02;;;1.02;;
48042;SDS011;33988;47.992;8.820;2022-10-23T04:02:07;1.25;;;1.05;;
48042;SDS011;33988;47.992;8.820;2022-10-23T04:04:34;1.45;;;1.08;;
48042;SDS011;33988;47.992;8.820;2022-10-23T04:07:01;1.15;;;1.05;;
48042;SDS011;33988;47.992;8.820;2022-10-23T04:09:28;4.82;;;0.90;;
48042;SDS011;33988;47.992;8.820;2022-10-23T04:11:55;5.13;;;0.90;;
48042;SDS011;33988;47.992;8.820;2022-10-23T04:16:53;1.15;;;1.05;;
48042;SDS011;33988;47.992;8.820;2022-10-23T04:19:23;0.82;;;0.70;;
48042;SDS011;33988;47.992;8.820;2022-10-23T04:21:53;1.10;;;0.80;;
48042;SDS011;33988;47.992;8.820;2022-10-23T04:24:19;3.03;;;0.90;;
48042;SDS011;33988;47.992;8.820;2022-10-23T04:26:46;1.00;;;1.00;;
48042;SDS011;33988;47.992;8.820;2022-10-23T04:29:13;4.22;;;1.10;;
48042;SDS011;33988;47.992;8.820;2022-10-23T04:31:43;1.25;;;1.00;;
48042;SDS011;33988;47.992;8.820;2022-10-23T04:34:10;2.28;;;1.08;;
48042;SDS011;33988;47.992;8.820;2022-10-23T04:36:37;5.68;;;1.00;;
48042;SDS011;33988;47.992;8.820;2022-10-23T04:39:04;3.13;;;0.90;;
48042;SDS011;33988;47.992;8.820;2022-10-23T04:41:31;1.27;;;1.02;;
48042;SDS011;33988;47.992;8.820;2022-10-23T04:43:58;14.10;;;1.70;;
48042;SDS011;33988;47.992;8.820;2022-10-23T04:46:25;4.30;;;1.30;;
48042;SDS011;33988;47.992;8.820;2022-10-23T04:48:51;2.13;;;1.38;;
48042;SDS011;33988;47.992;8.820;2022-10-23T04:51:19;8.25;;;1.73;;
48042;SDS011;33988;47.992;8.820;2022-10-23T04:53:45;1.92;;;1.35;;
48042;SDS011;33988;47.992;8.820;2022-10-23T04:56:15;1.35;;;1.20;;
48042;SDS011;33988;47.992;8.820;2022-10-23T04:58:42;3.50;;;1.50;;
48042;SDS011;33988;47.992;8.820;2022-10-23T05:01:09;7.15;;;1.90;;
48042;SDS011;33988;47.992;8.820;2022-10-23T05:03:37;7.10;;;1.55;;
48042;SDS011;33988;47.992;8.820;2022-10-23T05:06:06;4.15;;;1.70;;
48042;SDS011;33988;47.992;8.820;2022-10-23T05:08:35;9.40;;;2.33;;
48042;SDS011;33988;47.992;8.820;2022-10-23T05:11:02;5.80;;;1.33;;
48042;SDS011;33988;47.992;8.820;2022-10-23T05:13:30;2.47;;;1.20;;
48042;SDS011;33988;47.992;8.820;2022-10-23T05:15:57;11.13;;;1.63;;
48042;SDS011;33988;47.992;8.820;2022-10-23T05:21:05;8.52;;;2.13;;
48042;SDS011;33988;47.992;8.820;2022-10-23T05:23:40;2.42;;;1.65;;
48042;SDS011;33988;47.992;8.820;2022-10-23T05:26:09;3.35;;;1.50;;
48042;SDS011;33988;47.992;8.820;2022-10-23T05:28:36;3.65;;;1.25;;
48042;SDS011;33988;47.992;8.820;2022-10-23T05:31:04;1.60;;;1.23;;
48042;SDS011;33988;47.992;8.820;2022-10-23T05:33:32;3.47;;;1.17;;
48042;SDS011;33988;47.992;8.820;2022-10-23T05:36:03;6.03;;;1.20;;
48042;SDS011;33988;47.992;8.820;2022-10-23T05:38:31;26.50;;;1.45;;
48042;SDS011;33988;47.992;8.820;2022-10-23T05:41:01;13.77;;;1.55;;
48042;SDS011;33988;47.992;8.820;2022-10-23T05:43:29;8.00;;;1.20;;
48042;SDS011;33988;47.992;8.820;2022-10-23T05:45:56;1.20;;;1.10;;
48042;SDS011;33988;47.992;8.820;2022-10-23T05:48:29;4.00;;;1.10;;
48042;SDS011;33988;47.992;8.820;2022-10-23T05:51:07;7.10;;;1.10;;
48042;SDS011;33988;47.992;8.820;2022-10-23T05:53:36;3.10;;;0.90;;
48042;SDS011;33988;47.992;8.820;2022-10-23T05:58:36;2.45;;;1.02;;
48042;SDS011;33988;47.992;8.820;2022-10-23T06:01:07;1.25;;;1.00;;
48042;SDS011;33988;47.992;8.820;2022-10-23T06:03:37;1.95;;;1.05;;
48042;SDS011;33988;47.992;8.820;2022-10-23T06:06:05;0.85;;;0.80;;
48042;SDS011;33988;47.992;8.820;2022-10-23T06:08:33;4.30;;;1.00;;
48042;SDS011;33988;47.992;8.820;2022-10-23T06:11:05;3.72;;;1.30;;
48042;SDS011;33988;47.992;8.820;2022-10-23T06:13:37;3.20;;;1.00;;
48042;SDS011;33988;47.992;8.820;2022-10-23T06:16:14;4.22;;;1.10;;
48042;SDS011;33988;47.992;8.820;2022-10-23T06:18:43;6.20;;;1.20;;
48042;SDS011;33988;47.992;8.820;2022-10-23T06:21:11;14.48;;;1.40;;
48042;SDS011;33988;47.992;8.820;2022-10-23T06:23:40;17.70;;;2.00;;
48042;SDS011;33988;47.992;8.820;2022-10-23T06:26:11;2.65;;;1.73;;
48042;SDS011;33988;47.992;8.820;2022-10-23T06:28:40;7.07;;;1.77;;
48042;SDS011;33988;47.992;8.820;2022-10-23T06:31:09;2.50;;;1.52;;
48042;SDS011;33988;47.992;8.820;2022-10-23T06:33:38;6.68;;;2.00;;
48042;SDS011;33988;47.992;8.820;2022-10-23T06:36:06;5.22;;;1.80;;
48042;SDS011;33988;47.992;8.820;2022-10-23T06:38:38;4.43;;;2.03;;
48042;SDS011;33988;47.992;8.820;2022-10-23T06:41:07;3.70;;;1.95;;
48042;SDS011;33988;47.992;8.820;2022-10-23T06:43:42;4.60;;;1.50;;
48042;SDS011;33988;47.992;8.820;2022-10-23T06:46:09;5.00;;;1.42;;
48042;SDS011;33988;47.992;8.820;2022-10-23T06:48:36;4.60;;;1.10;;
48042;SDS011;33988;47.992;8.820;2022-10-23T06:51:08;1.10;;;1.00;;
48042;SDS011;33988;47.992;8.820;2022-10-23T06:53:37;0.93;;;0.88;;
48042;SDS011;33988;47.992;8.820;2022-10-23T06:56:06;4.10;;;1.10;;
48042;SDS011;33988;47.992;8.820;2022-10-23T06:58:37;11.93;;;1.35;;
48042;SDS011;33988;47.992;8.820;2022-10-23T07:01:06;1.00;;;0.90;;
48042;SDS011;33988;47.992;8.820;2022-10-23T07:03:36;4.32;;;0.93;;
48042;SDS011;33988;47.992;8.820;2022-10-23T07:06:06;3.72;;;1.00;;
48042;SDS011;33988;47.992;8.820;2022-10-23T07:08:37;1.50;;;1.10;;
48042;SDS011;33988;47.992;8.820;2022-10-23T07:11:05;2.53;;;1.15;;
48042;SDS011;33988;47.992;8.820;2022-10-23T07:19:52;1.10;;;1.00;;
48042;SDS011;33988;47.992;8.820;2022-10-23T07:22:19;1.02;;;1.00;;
48042;SDS011;33988;47.992;8.820;2022-10-23T07:24:49;5.45;;;1.08;;
48042;SDS011;33988;47.992;8.820;2022-10-23T07:30:35;1.35;;;1.23;;
48042;SDS011;33988;47.992;8.820;2022-10-23T07:33:14;1.88;;;0.93;;
48042;SDS011;33988;47.992;8.820;2022-10-23T07:38:54;0.80;;;0.80;;
48042;SDS011;33988;47.992;8.820;2022-10-23T07:41:43;1.27;;;0.90;;
48042;SDS011;33988;47.992;8.820;2022-10-23T07:47:39;2.17;;;1.90;;
48042;SDS011;33988;47.992;8.820;2022-10-23T07:50:36;6.13;;;1.30;;
48042;SDS011;33988;47.992;8.820;2022-10-23T07:53:17;1.60;;;1.50;;
48042;SDS011;33988;47.992;8.820;2022-10-23T07:55:54;2.15;;;1.67;;
48042;SDS011;33988;47.992;8.820;2022-10-23T07:58:56;2.95;;;2.13;;
48042;SDS011;33988;47.992;8.820;2022-10-23T08:10:53;3.58;;;2.83;;
48042;SDS011;33988;47.992;8.820;2022-10-23T08:14:08;6.65;;;4.57;;
48042;SDS011;33988;47.992;8.820;2022-10-23T08:20:11;4.82;;;3.53;;
48042;SDS011;33988;47.992;8.820;2022-10-23T08:22:49;4.15;;;2.83;;
48042;SDS011;33988;47.992;8.820;2022-10-23T08:25:29;3.25;;;2.60;;
48042;SDS011;33988;47.992;8.820;2022-10-23T08:27:57;2.72;;;2.20;;
48042;SDS011;33988;47.992;8.820;2022-10-23T08:34:08;3.17;;;2.25;;
48042;SDS011;33988;47.992;8.820;2022-10-23T08:36:35;3.67;;;2.60;;
48042;SDS011;33988;47.992;8.820;2022-10-23T08:39:13;2.55;;;1.98;;
48042;SDS011;33988;47.992;8.820;2022-10-23T08:42:01;2.67;;;2.40;;
48042;SDS011;33988;47.992;8.820;2022-10-23T08:47:31;2.90;;;2.10;;
48042;SDS011;33988;47.992;8.820;2022-10-23T08:53:34;2.35;;;1.90;;
48042;SDS011;33988;47.992;8.820;2022-10-23T09:02:16;2.78;;;2.10;;
48042;SDS011;33988;47.992;8.820;2022-10-23T09:05:03;2.00;;;1.70;;
48042;SDS011;33988;47.992;8.820;2022-10-23T09:11:02;2.95;;;1.65;;
48042;SDS011;33988;47.992;8.820;2022-10-23T09:17:54;2.33;;;1.70;;
48042;SDS011;33988;47.992;8.820;2022-10-23T09:20:33;1.92;;;1.65;;
48042;SDS011;33988;47.992;8.820;2022-10-23T09:23:15;1.45;;;1.35;;
48042;SDS011;33988;47.992;8.820;2022-10-23T09:25:47;1.42;;;1.30;;
48042;SDS011;33988;47.992;8.820;2022-10-23T09:28:27;1.50;;;1.27;;
48042;SDS011;33988;47.992;8.820;2022-10-23T09:31:08;1.35;;;1.20;;
48042;SDS011;33988;47.992;8.820;2022-10-23T09:33:57;1.20;;;0.85;;
48042;SDS011;33988;47.992;8.820;2022-10-23T09:39:24;1.30;;;0.95;;
48042;SDS011;33988;47.992;8.820;2022-10-23T09:42:13;1.33;;;1.15;;
48042;SDS011;33988;47.992;8.820;2022-10-23T09:44:54;0.93;;;0.90;;
48042;SDS011;33988;47.992;8.820;2022-10-23T09:47:23;1.30;;;1.02;;
48042;SDS011;33988;47.992;8.820;2022-10-23T09:49:54;1.52;;;0.95;;
48042;SDS011;33988;47.992;8.820;2022-10-23T09:52:28;0.80;;;0.80;;
48042;SDS011;33988;47.992;8.820;2022-10-23T09:55:23;1.13;;;1.02;;
48042;SDS011;33988;47.992;8.820;2022-10-23T09:57:56;1.13;;;0.90;;
48042;SDS011;33988;47.992;8.820;2022-10-23T10:00:26;1.10;;;0.75;;
48042;SDS011;33988;47.992;8.820;2022-10-23T10:05:30;1.00;;;0.90;;
48042;SDS011;33988;47.992;8.820;2022-10-23T10:20:38;0.75;;;0.75;;
48042;SDS011;33988;47.992;8.820;2022-10-23T10:26:36;1.23;;;1.13;;
48042;SDS011;33988;47.992;8.820;2022-10-23T10:41:31;1.00;;;0.80;;
48042;SDS011;33988;47.992;8.820;2022-10-23T10:50:06;0.70;;;0.70;;
48042;SDS011;33988;47.992;8.820;2022-10-23T10:52:41;1.58;;;0.90;;
48042;SDS011;33988;47.992;8.820;2022-10-23T10:55:38;1.35;;;0.63;;
48042;SDS011;33988;47.992;8.820;2022-10-23T11:01:23;0.88;;;0.60;;
48042;SDS011;33988;47.992;8.820;2022-10-23T11:07:13;1.27;;;0.80;;
48042;SDS011;33988;47.992;8.820;2022-10-23T11:09:45;0.93;;;0.63;;
48042;SDS011;33988;47.992;8.820;2022-10-23T11:12:31;0.70;;;0.70;;
48042;SDS011;33988;47.992;8.820;2022-10-23T11:15:28;0.85;;;0.85;;
48042;SDS011;33988;47.992;8.820;2022-10-23T11:18:27;1.17;;;1.08;;
48042;SDS011;33988;47.992;8.820;2022-10-23T11:38:32;2.28;;;0.65;;
48042;SDS011;33988;47.992;8.820;2022-10-23T11:43:57;0.75;;;0.60;;
48042;SDS011;33988;47.992;8.820;2022-10-23T11:46:29;0.88;;;0.88;;
48042;SDS011;33988;47.992;8.820;2022-10-23T11:49:04;0.68;;;0.68;;
48042;SDS011;33988;47.992;8.820;2022-10-23T11:51:47;0.80;;;0.80;;
48042;SDS011;33988;47.992;8.820;2022-10-23T11:54:26;0.80;;;0.70;;
48042;SDS011;33988;47.992;8.820;2022-10-23T11:56:55;0.82;;;0.73;;
48042;SDS011;33988;47.992;8.820;2022-10-23T12:05:07;1.85;;;0.80;;
48042;SDS011;33988;47.992;8.820;2022-10-23T12:08:15;1.23;;;0.60;;
48042;SDS011;33988;47.992;8.820;2022-10-23T12:10:47;0.80;;;0.80;;
48042;SDS011;33988;47.992;8.820;2022-10-23T12:16:03;1.60;;;0.95;;
48042;SDS011;33988;47.992;8.820;2022-10-23T12:18:50;1.73;;;1.13;;
48042;SDS011;33988;47.992;8.820;2022-10-23T12:21:22;1.23;;;0.95;;
48042;SDS011;33988;47.992;8.820;2022-10-23T12:35:17;1.05;;;0.85;;
48042;SDS011;33988;47.992;8.820;2022-10-23T12:38:09;2.05;;;0.80;;
48042;SDS011;33988;47.992;8.820;2022-10-23T12:40:51;1.00;;;0.68;;
48042;SDS011;33988;47.992;8.820;2022-10-23T12:43:29;2.78;;;1.00;;
48042;SDS011;33988;47.992;8.820;2022-10-23T12:48:55;1.10;;;0.80;;
48042;SDS011;33988;47.992;8.820;2022-10-23T12:51:27;0.80;;;0.80;;
48042;SDS011;33988;47.992;8.820;2022-10-23T12:54:00;0.90;;;0.90;;
48042;SDS011;33988;47.992;8.820;2022-10-23T12:56:38;0.98;;;0.90;;
48042;SDS011;33988;47.992;8.820;2022-10-23T12:59:53;1.05;;;0.90;;
48042;SDS011;33988;47.992;8.820;2022-10-23T13:04:53;1.98;;;0.80;;
48042;SDS011;33988;47.992;8.820;2022-10-23T13:07:24;1.02;;;0.88;;
48042;SDS011;33988;47.992;8.820;2022-10-23T13:09:54;2.67;;;0.63;;
48042;SDS011;33988;47.992;8.820;2022-10-23T13:12:28;1.08;;;1.00;;
48042;SDS011;33988;47.992;8.820;2022-10-23T13:15:00;3.30;;;1.77;;
48042;SDS011;33988;47.992;8.820;2022-10-23T13:22:43;1.05;;;0.80;;
48042;SDS011;33988;47.992;8.820;2022-10-23T13:25:26;3.25;;;0.80;;
48042;SDS011;33988;47.992;8.820;2022-10-23T13:28:40;2.22;;;1.75;;
48042;SDS011;33988;47.992;8.820;2022-10-23T13:33:37;1.60;;;1.20;;
48042;SDS011;33988;47.992;8.820;2022-10-23T13:41:14;2.28;;;1.63;;
48042;SDS011;33988;47.992;8.820;2022-10-23T13:43:46;1.95;;;1.60;;
48042;SDS011;33988;47.992;8.820;2022-10-23T13:46:14;2.10;;;1.60;;
48042;SDS011;33988;47.992;8.820;2022-10-23T13:48:44;1.83;;;1.33;;
48042;SDS011;33988;47.992;8.820;2022-10-23T13:51:13;1.48;;;1.17;;
48042;SDS011;33988;47.992;8.820;2022-10-23T13:53:42;1.20;;;1.10;;
48042;SDS011;33988;47.992;8.820;2022-10-23T13:56:13;2.00;;;1.35;;
48042;SDS011;33988;47.992;8.820;2022-10-23T13:58:44;1.08;;;0.98;;
48042;SDS011;33988;47.992;8.820;2022-10-23T14:01:29;2.10;;;1.30;;
48042;SDS011;33988;47.992;8.820;2022-10-23T14:03:59;2.70;;;1.40;;
48042;SDS011;33988;47.992;8.820;2022-10-23T14:06:26;1.70;;;1.33;;
48042;SDS011;33988;47.992;8.820;2022-10-23T14:08:58;1.95;;;1.45;;
48042;SDS011;33988;47.992;8.820;2022-10-23T14:11:25;1.30;;;1.20;;
48042;SDS011;33988;47.992;8.820;2022-10-23T14:13:52;1.13;;;1.02;;
48042;SDS011;33988;47.992;8.820;2022-10-23T14:16:21;1.42;;;1.10;;
48042;SDS011;33988;47.992;8.820;2022-10-23T14:18:48;1.98;;;0.90;;
48042;SDS011;33988;47.992;8.820;2022-10-23T14:21:16;1.58;;;1.17;;
48042;SDS011;33988;47.992;8.820;2022-10-23T14:23:49;1.33;;;1.20;;
48042;SDS011;33988;47.992;8.820;2022-10-23T14:26:21;0.98;;;0.90;;
48042;SDS011;33988;47.992;8.820;2022-10-23T14:28:53;1.10;;;1.00;;
48042;SDS011;33988;47.992;8.820;2022-10-23T14:31:24;5.18;;;1.02;;
48042;SDS011;33988;47.992;8.820;2022-10-23T14:33:53;0.90;;;0.88;;
48042;SDS011;33988;47.992;8.820;2022-10-23T14:36:25;1.50;;;1.17;;
48042;SDS011;33988;47.992;8.820;2022-10-23T14:39:13;1.77;;;1.38;;
48042;SDS011;33988;47.992;8.820;2022-10-23T14:41:40;2.03;;;1.17;;
48042;SDS011;33988;47.992;8.820;2022-10-23T14:44:07;3.53;;;1.35;;
48042;SDS011;33988;47.992;8.820;2022-10-23T14:46:34;2.25;;;1.25;;
48042;SDS011;33988;47.992;8.820;2022-10-23T14:49:03;0.95;;;0.95;;
48042;SDS011;33988;47.992;8.820;2022-10-23T14:51:30;2.38;;;1.40;;
48042;SDS011;33988;47.992;8.820;2022-10-23T14:54:00;1.58;;;1.33;;
48042;SDS011;33988;47.992;8.820;2022-10-23T14:56:32;1.33;;;1.15;;
48042;SDS011;33988;47.992;8.820;2022-10-23T14:59:02;1.53;;;1.43;;
48042;SDS011;33988;47.992;8.820;2022-10-23T15:01:33;1.95;;;1.50;;
48042;SDS011;33988;47.992;8.820;2022-10-23T15:04:12;1.90;;;1.40;;
48042;SDS011;33988;47.992;8.820;2022-10-23T15:06:40;2.08;;;1.20;;
48042;SDS011;33988;47.992;8.820;2022-10-23T15:09:12;3.67;;;1.70;;
48042;SDS011;33988;47.992;8.820;2022-10-23T15:11:40;1.20;;;1.10;;
48042;SDS011;33988;47.992;8.820;2022-10-23T15:14:07;0.70;;;0.70;;
48042;SDS011;33988;47.992;8.820;2022-10-23T15:16:34;2.67;;;0.85;;
48042;SDS011;33988;47.992;8.820;2022-10-23T15:19:07;1.33;;;1.05;;
48042;SDS011;33988;47.992;8.820;2022-10-23T15:21:44;2.20;;;1.08;;
48042;SDS011;33988;47.992;8.820;2022-10-23T15:24:12;2.67;;;0.90;;
48042;SDS011;33988;47.992;8.820;2022-10-23T15:26:40;1.30;;;1.20;;
48042;SDS011;33988;47.992;8.820;2022-10-23T15:29:10;1.00;;;0.90;;
48042;SDS011;33988;47.992;8.820;2022-10-23T15:31:41;3.95;;;0.80;;
48042;SDS011;33988;47.992;8.820;2022-10-23T15:34:20;1.52;;;0.73;;
48042;SDS011;33988;47.992;8.820;2022-10-23T15:36:55;1.27;;;1.10;;
48042;SDS011;33988;47.992;8.820;2022-10-23T15:39:25;1.27;;;0.88;;
48042;SDS011;33988;47.992;8.820;2022-10-23T15:41:58;0.90;;;0.90;;
48042;SDS011;33988;47.992;8.820;2022-10-23T15:44:28;2.05;;;1.33;;
48042;SDS011;33988;47.992;8.820;2022-10-23T15:46:57;4.22;;;2.25;;
48042;SDS011;33988;47.992;8.820;2022-10-23T15:49:27;3.17;;;1.83;;
48042;SDS011;33988;47.992;8.820;2022-10-23T15:51:57;3.83;;;2.10;;
48042;SDS011;33988;47.992;8.820;2022-10-23T15:54:27;2.58;;;1.88;;
48042;SDS011;33988;47.992;8.820;2022-10-23T15:56:58;2.80;;;1.83;;
48042;SDS011;33988;47.992;8.820;2022-10-23T15:59:26;2.95;;;1.40;;
48042;SDS011;33988;47.992;8.820;2022-10-23T16:01:54;1.20;;;1.00;;
48042;SDS011;33988;47.992;8.820;2022-10-23T16:04:22;2.00;;;1.17;;
48042;SDS011;33988;47.992;8.820;2022-10-23T16:06:51;1.75;;;1.05;;
48042;SDS011;33988;47.992;8.820;2022-10-23T16:09:18;1.63;;;1.08;;
48042;SDS011;33988;47.992;8.820;2022-10-23T16:11:47;1.70;;;1.02;;
48042;SDS011;33988;47.992;8.820;2022-10-23T16:14:15;1.15;;;1.08;;
48042;SDS011;33988;47.992;8.820;2022-10-23T16:16:44;1.60;;;1.00;;
48042;SDS011;33988;47.992;8.820;2022-10-23T16:19:11;2.33;;;1.15;;
48042;SDS011;33988;47.992;8.820;2022-10-23T16:21:41;2.35;;;1.00;;
48042;SDS011;33988;47.992;8.820;2022-10-23T16:24:08;3.60;;;1.95;;
48042;SDS011;33988;47.992;8.820;2022-10-23T16:26:38;3.40;;;2.05;;
48042;SDS011;33988;47.992;8.820;2022-10-23T16:29:06;3.92;;;2.30;;
48042;SDS011;33988;47.992;8.820;2022-10-23T16:31:39;3.60;;;2.13;;
48042;SDS011;33988;47.992;8.820;2022-10-23T16:34:05;4.20;;;2.10;;
48042;SDS011;33988;47.992;8.820;2022-10-23T16:39:05;4.45;;;2.40;;
48042;SDS011;33988;47.992;8.820;2022-10-23T16:41:36;2.15;;;1.70;;
48042;SDS011;33988;47.992;8.820;2022-10-23T16:44:03;3.30;;;2.10;;
48042;SDS011;33988;47.992;8.820;2022-10-23T16:46:32;3.17;;;2.08;;
48042;SDS011;33988;47.992;8.820;2022-10-23T16:49:05;3.55;;;2.20;;
48042;SDS011;33988;47.992;8.820;2022-10-23T16:51:34;3.03;;;1.85;;
48042;SDS011;33988;47.992;8.820;2022-10-23T16:54:01;4.35;;;2.00;;
48042;SDS011;33988;47.992;8.820;2022-10-23T16:56:28;2.03;;;1.70;;
48042;SDS011;33988;47.992;8.820;2022-10-23T16:58:56;4.28;;;1.98;;
48042;SDS011;33988;47.992;8.820;2022-10-23T17:01:26;4.72;;;2.90;;
48042;SDS011;33988;47.992;8.820;2022-10-23T17:03:55;4.43;;;2.80;;
48042;SDS011;33988;47.992;8.820;2022-10-23T17:06:24;3.72;;;2.80;;
48042;SDS011;33988;47.992;8.820;2022-10-23T17:08:54;3.83;;;3.10;;
48042;SDS011;33988;47.992;8.820;2022-10-23T17:11:23;4.00;;;3.00;;
48042;SDS011;33988;47.992;8.820;2022-10-23T17:14:22;4.20;;;2.50;;
48042;SDS011;33988;47.992;8.820;2022-10-23T17:16:55;7.03;;;3.00;;
48042;SDS011;33988;47.992;8.820;2022-10-23T17:19:26;4.20;;;3.03;;
48042;SDS011;33988;47.992;8.820;2022-10-23T17:22:12;3.85;;;2.85;;
48042;SDS011;33988;47.992;8.820;2022-10-23T17:24:40;2.72;;;2.08;;
48042;SDS011;33988;47.992;8.820;2022-10-23T17:27:18;4.65;;;2.00;;
48042;SDS011;33988;47.992;8.820;2022-10-23T17:29:46;3.90;;;2.42;;
48042;SDS011;33988;47.992;8.820;2022-10-23T17:32:17;3.95;;;1.80;;
48042;SDS011;33988;47.992;8.820;2022-10-23T17:34:46;3.15;;;1.70;;
48042;SDS011;33988;47.992;8.820;2022-10-23T17:37:13;5.35;;;2.47;;
48042;SDS011;33988;47.992;8.820;2022-10-23T17:39:42;2.25;;;1.63;;
48042;SDS011;33988;47.992;8.820;2022-10-23T17:42:11;3.90;;;1.90;;
48042;SDS011;33988;47.992;8.820;2022-10-23T17:44:38;4.05;;;2.65;;
48042;SDS011;33988;47.992;8.820;2022-10-23T17:47:05;4.65;;;2.33;;
48042;SDS011;33988;47.992;8.820;2022-10-23T17:49:35;5.43;;;2.67;;
48042;SDS011;33988;47.992;8.820;2022-10-23T17:52:04;4.88;;;2.00;;
48042;SDS011;33988;47.992;8.820;2022-10-23T17:54:33;2.25;;;1.55;;
48042;SDS011;33988;47.992;8.820;2022-10-23T17:57:01;2.75;;;1.50;;
48042;SDS011;33988;47.992;8.820;2022-10-23T17:59:28;3.20;;;1.33;;
48042;SDS011;33988;47.992;8.820;2022-10-23T18:01:59;4.68;;;2.38;;
48042;SDS011;33988;47.992;8.820;2022-10-23T18:04:31;3.60;;;1.80;;
48042;SDS011;33988;47.992;8.820;2022-10-23T18:07:02;2.97;;;1.70;;
48042;SDS011;33988;47.992;8.820;2022-10-23T18:09:31;2.63;;;1.73;;
48042;SDS011;33988;47.992;8.820;2022-10-23T18:11:58;5.88;;;1.70;;
48042;SDS011;33988;47.992;8.820;2022-10-23T18:14:25;2.88;;;1.70;;
48042;SDS011;33988;47.992;8.820;2022-10-23T18:16:54;2.90;;;1.70;;
48042;SDS011;33988;47.992;8.820;2022-10-23T18:19:22;2.70;;;1.60;;
48042;SDS011;33988;47.992;8.820;2022-10-23T18:21:49;3.72;;;1.75;;
48042;SDS011;33988;47.992;8.820;2022-10-23T18:24:25;1.98;;;1.15;;
48042;SDS011;33988;47.992;8.820;2022-10-23T18:26:56;1.80;;;1.38;;
48042;SDS011;33988;47.992;8.820;2022-10-23T18:29:25;2.20;;;1.60;;
48042;SDS011;33988;47.992;8.820;2022-10-23T18:31:57;2.47;;;1.50;;
48042;SDS011;33988;47.992;8.820;2022-10-23T18:34:24;2.75;;;1.67;;
48042;SDS011;33988;47.992;8.820;2022-10-23T18:36:53;2.83;;;1.73;;
48042;SDS011;33988;47.992;8.820;2022-10-23T18:39:23;4.05;;;1.60;;
48042;SDS011;33988;47.992;8.820;2022-10-23T18:41:55;2.75;;;1.50;;
48042;SDS011;33988;47.992;8.820;2022-10-23T18:44:23;6.13;;;1.73;;
48042;SDS011;33988;47.992;8.820;2022-10-23T18:46:58;4.85;;;2.42;;
48042;SDS011;33988;47.992;8.820;2022-10-23T18:49:25;2.80;;;1.70;;
48042;SDS011;33988;47.992;8.820;2022-10-23T18:51:55;3.30;;;1.58;;
48042;SDS011;33988;47.992;8.820;2022-10-23T18:54:25;5.30;;;1.70;;
48042;SDS011;33988;47.992;8.820;2022-10-23T18:56:57;3.08;;;1.67;;